Shawnee Mission, KS (66212)

00:15 CDT le 05 mai 2015 (GMT -0500)
MorningView | | Change Station
CLOSE
Current Station
Stations météorologiques personnelles
Location: Overland Park, KS
Altitude: 965 ft
Stations météo à proximité

Alt. 965 ft 38.95 °N, 94.69 °W | Updated 54 seconds ago

Pluie
Pluie
63.4 ° F
Paraît 63.4 ° F
N
0.0
Vent Variable Vent de ONO
Gusts 0.0 mph

Aujourd'hui
Haut(e) -- | Bas -- ° F
--% Risque de précip.
Hier
Haut(e) -- | Bas -- ° F
Precip. -- pouce
6:16 AM 8:15 PM
Pleine lune, 99% visible
Pression 30.08 pouce
Visibilité 10.0 Miles terrestres
Nuages Peu 5000 ft
Nuages épars 9000 ft
Point de rosée 61 ° F
Humidité 91%
Précipitations 0.00 pouce
Profondeur de la couche neigeuse Non disponible.
UV 0 sur 12
Pollen 5.80 sur 12
Qualité de l'air Non disponible.
Flu Activity Sporadic
METAR KOJC 050453Z AUTO 00000KT 10SM FEW050 SCT090 17/17 A3010 RMK AO2 LTG DSNT N AND NE RAB0359E40 TSE08 SLP186 P0008 T01720167

More Conditions Fewer Conditions

Pression 30.08 pouce
Visibilité 10.0 Miles terrestres
Nuages Peu 5000 ft
Nuages épars 9000 ft
Point de rosée 61 ° F
Humidité 91%
Précipitations 0.00 pouce
Profondeur de la couche neigeuse Non disponible.
UV 0 sur 12
Pollen 5.80 sur 12
Qualité de l'air Non disponible.
Flu Activity Sporadic
METAR KOJC 050453Z AUTO 00000KT 10SM FEW050 SCT090 17/17 A3010 RMK AO2 LTG DSNT N AND NE RAB0359E40 TSE08 SLP186 P0008 T01720167

More Conditions Fewer Conditions

Nepal has a long way to go to dig out and rebuild from a devastating earthquake. We have teamed up with several charities and organizations to make contributing to the relief effort as easy as possible.
How you can help: Portlight Strategies | Red Cross

10-Day Weather Forecast

Almanac

Astronomie

May. 05, 2015 Lever Coucher
Temps réel
Crépuscule civil
Crépuscule nautique
Crépuscule astronomique
Lune
Durée de lumière visible
Longueur du jour
Tomorrow will be .
, % of the Moon is Illuminated

Extrêmes aujourd'hui

State Highs State Lows

Community

WunderPhotos

Upload Photos

1,818,814 Photos téléchargées !

WunderBlogs® & News

Nearby

Qualité de l'air

  Qualité de l'air Indice de la qualité de l'air Polluant
Not available.

Épaisseur de neige

Station Depth Altitude

Activité sismique

Ville Distance Mag. Time & Date
Minimum magnitude displayed is 2.5.

Températures des eaux côtières

Lieu Température

Stations

Stations météo à proximité

Emplacement de la station Température Refroidissement éolien Point de rosée Humidité Vent Precip. Alt. Mise à jour Type